M I D A S
Marine Information and Data Acquisition System
Tripno 1442 of the Zeeleeuw from 2008-03-20 07:41:39 to 2008-03-20 15:24:56
Back to CruiseResearch ActivitiesStationsMapUnderway DataData graphs

EquipmentUnitsComment
TimeDGPSUTC
LatitudeDGPSDM.mWGS84
LongitudeDGPSDM.mWGS84
HeadingGyrodeg 
SOGDGPSknotsSpeed over ground
COGDGPSdegCourse over ground
DepthEcho soundermeters200 kHz
Missing or incorrect values are displayed as -999
Navigation data collected by the RV Zeeleeuw from 2008-03-20 07:38:23 to 2008-03-20 15:35:19
Time Latitude Longitude Heading SOG COG Depth
2008-03-20 07:39:28 51°13.681 2°55.897 107.1 3.5 290 -999
2008-03-20 07:40:28 51°13.692 2°55.815 88.8 3 275 8.6
2008-03-20 07:41:28 51°13.691 2°55.757 70.4 1.4 258 11.4
2008-03-20 07:42:28 51°13.69 2°55.744 47 0.4 23 11.2
2008-03-20 07:43:28 51°13.706 2°55.748 7.5 1.4 357 13.1
2008-03-20 07:44:28 51°13.758 2°55.707 326.6 6 326 -999
2008-03-20 07:45:28 51°13.864 2°55.604 332.7 8.2 334 10.7
2008-03-20 07:46:28 51°13.994 2°55.511 336.4 8.7 336 10.3
2008-03-20 07:47:28 51°14.122 2°55.412 334.5 8.5 333 9.9
2008-03-20 07:48:28 51°14.242 2°55.289 321.7 9.3 319 10.3
2008-03-20 07:49:28 51°14.362 2°55.083 309.5 11.2 308 10
2008-03-20 07:50:28 51°14.46 2°54.814 300.2 12.4 295 10.1
2008-03-20 07:51:28 51°14.539 2°54.508 295.4 12.4 293 9.8
2008-03-20 07:52:28 51°14.617 2°54.201 295.7 12.6 293 10.2
2008-03-20 07:53:28 51°14.676 2°53.88 286.7 12.7 283 10
2008-03-20 07:54:28 51°14.715 2°53.556 279.5 12.6 275 9.6
2008-03-20 07:55:28 51°14.732 2°53.222 278.6 12.7 275 8.8
2008-03-20 07:56:28 51°14.75 2°52.886 277.2 12.7 275 8.7
2008-03-20 07:57:28 51°14.76 2°52.546 277 12.8 272 8.8
2008-03-20 07:58:28 51°14.776 2°52.206 277.9 12.9 272 9.5
2008-03-20 07:59:28 51°14.787 2°51.863 277.1 13.1 271 9.9
2008-03-20 08:00:28 51°14.799 2°51.517 278.3 13.2 273 10.3
2008-03-20 08:01:28 51°14.812 2°51.165 279 13.4 273 10.8
2008-03-20 08:02:28 51°14.825 2°50.814 278.1 13.3 273 11
2008-03-20 08:03:28 51°14.838 2°50.461 276.1 13.4 272 11.6
2008-03-20 08:04:28 51°14.84 2°50.105 274.8 13.4 270 11.9
2008-03-20 08:05:28 51°14.845 2°49.753 274.6 13.2 271 11.9
2008-03-20 08:06:28 51°14.85 2°49.406 276.4 13.1 270 12.1
2008-03-20 08:07:28 51°14.856 2°49.059 275.7 13.1 272 12.2
2008-03-20 08:08:28 51°14.851 2°48.714 271 12.9 268 12.1
2008-03-20 08:09:28 51°14.832 2°48.376 267 12.8 267 11.8
2008-03-20 08:10:28 51°14.813 2°48.035 268.1 12.9 265 11.7
2008-03-20 08:11:28 51°14.796 2°47.696 268.5 12.9 264 12.1
2008-03-20 08:12:28 51°14.777 2°47.355 267.6 13 264 12.6
2008-03-20 08:13:28 51°14.762 2°47.015 268.6 12.7 268 12.5
2008-03-20 08:14:28 51°14.743 2°46.674 268.5 12.8 266 11.5
2008-03-20 08:15:28 51°14.726 2°46.335 267.9 12.8 264 9.1
2008-03-20 08:16:28 51°14.708 2°45.998 267.4 12.8 264 8.3
2008-03-20 08:17:28 51°14.689 2°45.66 269 13 262 9.2
2008-03-20 08:18:28 51°14.672 2°45.316 267.1 13.1 268 10.9
2008-03-20 08:19:28 51°14.653 2°44.972 267.3 13.1 265 12.6
2008-03-20 08:20:28 51°14.636 2°44.627 268.5 13.1 266 14.2
2008-03-20 08:21:28 51°14.615 2°44.282 266.3 13 267 15.2
2008-03-20 08:22:28 51°14.594 2°43.935 267.5 13.2 264 15.7
2008-03-20 08:23:28 51°14.573 2°43.589 266.4 13 265 16.5
2008-03-20 08:24:28 51°14.551 2°43.24 267 13.2 265 16.9
2008-03-20 08:25:28 51°14.533 2°42.892 267.6 13.2 265 17.6
2008-03-20 08:26:28 51°14.512 2°42.543 267.4 13.1 265 17.3
2008-03-20 08:27:28 51°14.49 2°42.202 267.5 13 263 16.8
2008-03-20 08:28:28 51°14.467 2°41.862 267.2 12.8 267 15
2008-03-20 08:29:28 51°14.443 2°41.524 266.9 12.7 266 14.1
2008-03-20 08:30:28 51°14.419 2°41.185 266.3 12.9 263 14.3
2008-03-20 08:31:28 51°14.396 2°40.846 267 12.8 265 13.8
2008-03-20 08:32:28 51°14.379 2°40.509 267.5 12.7 264 13.3
2008-03-20 08:33:28 51°14.361 2°40.177 266.3 12.6 267 12.7
2008-03-20 08:34:28 51°14.344 2°39.845 269.5 12.7 263 13.3
2008-03-20 08:35:28 51°14.325 2°39.513 266 12.6 265 13
2008-03-20 08:36:28 51°14.305 2°39.181 269.2 12.5 265 13.2
2008-03-20 08:37:28 51°14.281 2°38.85 264.5 12.6 259 14.4
2008-03-20 08:38:28 51°14.236 2°38.517 259.1 13.1 255 16.8
2008-03-20 08:39:28 51°14.188 2°38.182 258.7 12.9 261 18.1
2008-03-20 08:40:28 51°14.145 2°37.847 261.8 13.1 257 19.1
2008-03-20 08:41:28 51°14.103 2°37.507 261.9 13.3 255 19.5
2008-03-20 08:42:28 51°14.064 2°37.167 261.3 13 261 17.8
2008-03-20 08:43:28 51°14.024 2°36.831 260.7 13 261 16.3
2008-03-20 08:44:28 51°13.988 2°36.497 260.6 12.6 263 15.7
2008-03-20 08:45:28 51°13.952 2°36.167 260.1 12.6 260 15.2
2008-03-20 08:46:28 51°13.92 2°35.84 260 12.2 266 14.7
2008-03-20 08:47:28 51°13.885 2°35.515 261.2 12.1 258 14.3
2008-03-20 08:48:28 51°13.852 2°35.193 260.4 12.3 261 14.4
2008-03-20 08:49:28 51°13.822 2°34.869 259.1 12.5 265 13.8
2008-03-20 08:50:28 51°13.789 2°34.544 260.5 12.7 260 19.7
2008-03-20 08:51:28 51°13.752 2°34.215 260.5 12.8 259 23.1
2008-03-20 08:52:28 51°13.713 2°33.884 258.6 12.6 259 23
2008-03-20 08:53:28 51°13.69 2°33.552 266.4 12.7 266 23.2
2008-03-20 08:54:28 51°13.687 2°33.215 274.2 12.6 269 23.7
2008-03-20 08:55:28 51°13.694 2°32.88 274.6 12.6 273 25.1
2008-03-20 08:56:28 51°13.698 2°32.541 275 12.8 271 25.2
2008-03-20 08:57:28 51°13.702 2°32.2 274.8 13 270 25.1
2008-03-20 08:58:28 51°13.703 2°31.94 279.8 6 277 23.9
2008-03-20 08:59:28 51°13.727 2°31.866 333.3 1.4 326 23.3
2008-03-20 09:00:28 51°13.731 2°31.868 6.6 0.3 116 23.4
2008-03-20 09:01:28 51°13.726 2°31.878 2 0.6 135 23.8
2008-03-20 09:02:28 51°13.716 2°31.888 359.1 1 155 23.5
2008-03-20 09:03:28 51°13.702 2°31.899 359.8 1.1 145 23.9
2008-03-20 09:04:28 51°13.685 2°31.912 6.2 1.3 149 23.8
2008-03-20 09:05:28 51°13.665 2°31.923 16.3 1.2 169 24.4
2008-03-20 09:06:28 51°13.644 2°31.934 25.5 1.4 156 24.9
2008-03-20 09:07:28 51°13.629 2°31.949 24.2 0.7 108 25
2008-03-20 09:08:28 51°13.637 2°31.97 13.4 1.1 36 24.8
2008-03-20 09:09:28 51°13.654 2°31.987 6.5 1.3 28 24.8
2008-03-20 09:10:28 51°13.672 2°32.003 10.7 1.3 34 24.7
2008-03-20 09:11:28 51°13.688 2°32.029 21.3 1.5 55 24.8
2008-03-20 09:12:28 51°13.701 2°32.061 30.4 1.6 59 24.8
2008-03-20 09:13:28 51°13.714 2°32.099 38.5 1.9 72 24.8
2008-03-20 09:14:28 51°13.726 2°32.142 37.9 1.7 61 25.1
2008-03-20 09:15:28 51°13.737 2°32.182 36.2 1.7 66 25.5
2008-03-20 09:16:28 51°13.747 2°32.226 42.7 2 77 25.5
2008-03-20 09:17:28 51°13.755 2°32.272 48.2 1.9 79 25.5
2008-03-20 09:18:28 51°13.76 2°32.322 49.3 1.9 83 25.7
2008-03-20 09:19:28 51°13.764 2°32.366 45.9 1.6 81 25.9
2008-03-20 09:20:28 51°13.77 2°32.408 42.4 1.4 85 25.9
2008-03-20 09:21:28 51°13.77 2°32.436 32.5 0.7 100 26.2
2008-03-20 09:22:28 51°13.766 2°32.456 20.3 0.9 123 25.7
2008-03-20 09:23:28 51°13.759 2°32.473 15.5 0.8 133 26
2008-03-20 09:24:28 51°13.75 2°32.489 5.7 1 136 26.1
2008-03-20 09:25:28 51°13.737 2°32.505 3.8 1.2 143 25.5
2008-03-20 09:26:28 51°13.718 2°32.524 12.8 1.4 145 25.9
2008-03-20 09:27:28 51°13.699 2°32.543 23.2 1.3 147 26.2
2008-03-20 09:28:28 51°13.681 2°32.561 32.6 1.2 150 26
2008-03-20 09:29:28 51°13.664 2°32.579 37.3 1.2 142 25.9
2008-03-20 09:30:28 51°13.65 2°32.597 31.8 1.1 138 26.2
2008-03-20 09:31:27 51°13.639 2°32.623 25.3 1.2 97 26
2008-03-20 09:32:28 51°13.653 2°32.645 352.5 1.5 13 26.1
2008-03-20 09:33:28 51°13.684 2°32.634 335.9 2.8 343 26.3
2008-03-20 09:34:28 51°13.753 2°32.59 336.3 6.2 332 26.6
2008-03-20 09:35:28 51°13.85 2°32.473 322.2 7.9 321 26.1
2008-03-20 09:36:28 51°13.956 2°32.339 322.7 8.3 326 25.3
2008-03-20 09:37:28 51°14.069 2°32.213 323.6 8.3 327 23.8
2008-03-20 09:38:28 51°14.184 2°32.1 322.4 8.1 330 22
2008-03-20 09:39:28 51°14.268 2°32.024 319.3 3.2 332 18.8
2008-03-20 09:40:27 51°14.312 2°32.003 320.2 1.9 350 16.9
2008-03-20 09:41:28 51°14.327 2°32.034 326 1.9 67 17.7
2008-03-20 09:42:28 51°14.334 2°32.079 349.6 2 77 -999
2008-03-20 09:43:28 51°14.336 2°32.124 12.5 1.7 99 19.6
2008-03-20 09:44:28 51°14.333 2°32.163 26.8 1.4 95 21.1
2008-03-20 09:45:28 51°14.331 2°32.205 32.2 1.7 102 21.4
2008-03-20 09:46:28 51°14.329 2°32.246 39.9 1.5 92 21.4
2008-03-20 09:47:28 51°14.328 2°32.287 39.7 1.7 86 21.6
2008-03-20 09:48:28 51°14.329 2°32.33 38 1.9 86 22.6
2008-03-20 09:49:28 51°14.334 2°32.375 23.3 1.8 79 23.1
2008-03-20 09:50:28 51°14.34 2°32.423 11.5 1.9 82 22.9
2008-03-20 09:51:28 51°14.345 2°32.471 6.5 1.8 81 23.6
2008-03-20 09:52:28 51°14.35 2°32.52 11.2 1.7 87 23.7
2008-03-20 09:53:28 51°14.351 2°32.567 16.3 2 89 23.9
2008-03-20 09:54:28 51°14.352 2°32.613 23.1 1.6 86 24.8
2008-03-20 09:55:28 51°14.353 2°32.66 28 1.8 80 25.1
2008-03-20 09:56:28 51°14.369 2°32.708 12.6 3.6 25 25.4
2008-03-20 09:57:28 51°14.438 2°32.667 309.1 6.5 324 24.5
2008-03-20 09:58:28 51°14.541 2°32.523 310.2 7.3 318 22.5
2008-03-20 09:59:28 51°14.551 2°32.442 247.7 1.6 229 21.2
2008-03-20 10:00:28 51°14.547 2°32.412 274.8 1.4 292 20.4
2008-03-20 10:01:28 51°14.549 2°32.35 259.3 2.9 251 18.9
2008-03-20 10:02:28 51°14.523 2°32.302 232.9 2.2 210 18.7
2008-03-20 10:03:28 51°14.493 2°32.255 246.7 2 233 18.4
2008-03-20 10:04:28 51°14.468 2°32.214 241.2 2.6 226 18.2
2008-03-20 10:05:28 51°14.433 2°32.157 241.3 3.6 228 17.8
2008-03-20 10:06:28 51°14.391 2°32.095 232.8 3.1 207 17.6
2008-03-20 10:07:28 51°14.35 2°32.067 232.4 2.5 213 18.1
2008-03-20 10:08:28 51°14.318 2°32.013 243.3 3.2 230 17.5
2008-03-20 10:09:28 51°14.285 2°31.948 243.1 3.1 233 16.9
2008-03-20 10:10:28 51°14.248 2°31.9 233.4 2.8 211 16.9
2008-03-20 10:11:28 51°14.208 2°31.858 233.2 3 214 16.9
2008-03-20 10:12:28 51°14.165 2°31.821 228.7 2.8 211 17.5
2008-03-20 10:13:28 51°14.122 2°31.787 230.8 2.8 211 17.9
2008-03-20 10:14:28 51°14.079 2°31.748 229.3 2.9 215 18.2
2008-03-20 10:15:28 51°14.037 2°31.707 231.9 2.9 215 18.3
2008-03-20 10:16:28 51°13.997 2°31.672 231.1 3 204 18.5
2008-03-20 10:17:28 51°13.96 2°31.629 235.9 2.7 220 18.7
2008-03-20 10:18:28 51°13.924 2°31.586 234.9 2.7 217 18.5
2008-03-20 10:19:28 51°13.89 2°31.54 239.8 2.6 222 18.3
2008-03-20 10:20:28 51°13.856 2°31.492 238.7 2.8 212 17.9
2008-03-20 10:21:28 51°13.824 2°31.443 239.7 2.7 225 17.7
2008-03-20 10:22:28 51°13.79 2°31.401 238 2.4 223 17.4
2008-03-20 10:23:28 51°13.758 2°31.363 239.9 2.4 224 17.5
2008-03-20 10:24:28 51°13.726 2°31.319 239.2 2.5 221 17.3
2008-03-20 10:25:28 51°13.696 2°31.272 246.4 2.5 232 17.2
2008-03-20 10:26:28 51°13.704 2°31.197 292.4 3.8 310 15.3
2008-03-20 10:27:28 51°13.765 2°31.169 330.8 4 4 13.4
2008-03-20 10:28:28 51°13.825 2°31.202 353.1 3.9 29 13.1
2008-03-20 10:29:28 51°13.881 2°31.243 351.5 3.8 24 12.9
2008-03-20 10:30:28 51°13.936 2°31.288 352.1 3.4 28 12.7
2008-03-20 10:31:28 51°13.989 2°31.33 352.1 3.6 28 12.8
2008-03-20 10:32:28 51°14.043 2°31.382 356.4 3.7 29 12.6
2008-03-20 10:33:28 51°14.097 2°31.431 355 3.8 33 12.1
2008-03-20 10:34:28 51°14.152 2°31.481 352.4 3.8 27 12.3
2008-03-20 10:35:28 51°14.206 2°31.529 355.4 3.7 30 12
2008-03-20 10:36:28 51°14.262 2°31.58 358.2 3.9 29 11.6
2008-03-20 10:37:28 51°14.318 2°31.63 357.7 3.8 29 12.1
2008-03-20 10:38:28 51°14.374 2°31.683 359.1 4 33 11.6
2008-03-20 10:39:28 51°14.429 2°31.749 6.6 4.3 37 12.1
2008-03-20 10:40:28 51°14.476 2°31.825 32 4.3 58 12.3
2008-03-20 10:41:28 51°14.503 2°31.924 49.6 3.8 70 12.6
2008-03-20 10:42:28 51°14.514 2°32.024 85.2 3.6 94 13.7
2008-03-20 10:43:28 51°14.507 2°32.11 121.8 2.9 105 14.5
2008-03-20 10:44:28 51°14.494 2°32.178 154.5 2.4 106 17
2008-03-20 10:45:28 51°14.484 2°32.234 168.8 2.2 103 18.4
2008-03-20 10:46:28 51°14.478 2°32.282 179.9 1.7 99 20.6
2008-03-20 10:47:28 51°14.475 2°32.33 186.5 1.8 91 20.8
2008-03-20 10:48:28 51°14.476 2°32.379 184.2 2.1 88 22.3
2008-03-20 10:49:28 51°14.478 2°32.431 181.2 1.9 93 22.6
2008-03-20 10:50:28 51°14.47 2°32.484 166.8 2.5 120 23.6
2008-03-20 10:51:28 51°14.447 2°32.573 117.5 4.5 102 24.2
2008-03-20 10:52:28 51°14.429 2°32.72 114.2 6.7 104 25.8
2008-03-20 10:53:28 51°14.398 2°32.903 112.5 7.3 106 27
2008-03-20 10:54:28 51°14.368 2°33.098 111.9 7.6 104 27.6
2008-03-20 10:55:28 51°14.342 2°33.296 112.1 7.8 99 27.9
2008-03-20 10:56:28 51°14.32 2°33.496 112.3 7.7 100 27.9
2008-03-20 10:57:28 51°14.301 2°33.701 112.2 7.7 101 27.8
2008-03-20 10:58:28 51°14.274 2°33.896 117 7.4 105 27.5
2008-03-20 10:59:28 51°14.242 2°34.09 116.9 7.6 106 25.7
2008-03-20 11:00:28 51°14.208 2°34.287 117.8 7.6 108 24.8
2008-03-20 11:01:28 51°14.17 2°34.48 118.2 7.6 111 24.4
2008-03-20 11:02:28 51°14.132 2°34.675 118.2 7.7 108 23.9
2008-03-20 11:03:28 51°14.094 2°34.87 117.9 7.8 106 23.5
2008-03-20 11:04:28 51°14.053 2°35.068 118.3 7.9 110 20.7
2008-03-20 11:05:28 51°14.012 2°35.267 118.3 8 108 16.5
2008-03-20 11:06:28 51°13.969 2°35.466 117.9 7.9 107 16.4
2008-03-20 11:07:28 51°13.925 2°35.666 117.9 7.9 112 16.8
2008-03-20 11:08:28 51°13.88 2°35.866 118.4 8 109 18.2
2008-03-20 11:09:28 51°13.836 2°36.064 118.8 8 109 19.9
2008-03-20 11:10:28 51°13.795 2°36.266 117.9 8.1 108 22.1
2008-03-20 11:11:28 51°13.749 2°36.462 124.2 7.8 111 22.2
2008-03-20 11:12:28 51°13.699 2°36.653 124.3 7.7 115 22.7
2008-03-20 11:13:28 51°13.65 2°36.845 122.6 7.8 112 22
2008-03-20 11:14:28 51°13.602 2°37.038 124 7.9 110 18.8
2008-03-20 11:15:28 51°13.547 2°37.221 138.1 7.1 129 12.7
2008-03-20 11:16:28 51°13.46 2°37.308 178.2 6.4 163 11.9
2008-03-20 11:17:28 51°13.34 2°37.296 198.2 8.7 185 12.2
2008-03-20 11:18:28 51°13.191 2°37.255 196.6 9.6 192 12.3
2008-03-20 11:19:28 51°13.039 2°37.218 200.5 9.3 183 12.5
2008-03-20 11:20:28 51°12.886 2°37.178 198.5 9.3 189 12.5
2008-03-20 11:21:28 51°12.731 2°37.138 199.6 10.5 188 13
2008-03-20 11:22:28 51°12.553 2°37.08 198.7 11.1 192 13.6
2008-03-20 11:23:28 51°12.372 2°37.018 199.7 11 190 13.5
2008-03-20 11:24:28 51°12.189 2°36.952 198.7 11 197 13.2
2008-03-20 11:25:28 51°12.006 2°36.887 200.3 11.3 189 13.3
2008-03-20 11:26:28 51°11.825 2°36.821 198.3 11 196 13.7
2008-03-20 11:27:28 51°11.644 2°36.753 199.9 11 194 14.5
2008-03-20 11:28:28 51°11.469 2°36.659 204.7 10.7 199 14.8
2008-03-20 11:29:28 51°11.294 2°36.567 203.4 11.2 194 14.9
2008-03-20 11:30:28 51°11.123 2°36.465 202 11 199 15
2008-03-20 11:31:28 51°10.95 2°36.37 203.8 10.8 197 14.8
2008-03-20 11:32:28 51°10.778 2°36.268 204.2 11.3 198 14.5
2008-03-20 11:33:28 51°10.607 2°36.162 204.5 10.9 204 13.9
2008-03-20 11:34:28 51°10.438 2°36.064 206.5 11 198 13.7
2008-03-20 11:35:28 51°10.27 2°35.959 202.7 11.1 201 13.3
2008-03-20 11:36:28 51°10.1 2°35.859 206.7 11 199 17.9
2008-03-20 11:37:28 51°9.932 2°35.771 205.3 10.4 200 21
2008-03-20 11:38:28 51°9.769 2°35.678 206.7 10.4 196 21.5
2008-03-20 11:39:28 51°9.62 2°35.594 206.2 7 199 21.2
2008-03-20 11:40:28 51°9.55 2°35.621 163.3 4.1 129 20.8
2008-03-20 11:41:28 51°9.534 2°35.731 105.6 4.6 84 20.4
2008-03-20 11:42:28 51°9.558 2°35.84 55.8 3.7 64 20.6
2008-03-20 11:43:28 51°9.57 2°35.903 31.8 1.9 96 20.2
2008-03-20 11:44:28 51°9.571 2°35.946 46.1 1.6 78 -999
2008-03-20 11:45:28 51°9.579 2°36 47.3 2.3 75 19.9
2008-03-20 11:46:28 51°9.589 2°36.057 39.1 2.3 72 20.4
2008-03-20 11:47:28 51°9.602 2°36.117 26.6 2.5 73 20.2
2008-03-20 11:48:28 51°9.613 2°36.176 13 2.2 76 20.2
2008-03-20 11:49:28 51°9.625 2°36.235 10.3 2.3 76 20.3
2008-03-20 11:50:28 51°9.635 2°36.296 7 2.5 76 19.8
2008-03-20 11:51:28 51°9.645 2°36.357 4.2 2.5 77 19.7
2008-03-20 11:52:28 51°9.653 2°36.416 6.1 2.3 78 20.2
2008-03-20 11:53:28 51°9.66 2°36.475 10.2 2.1 79 20.3
2008-03-20 11:54:28 51°9.685 2°36.533 351.5 3.1 38 19.7
2008-03-20 11:55:28 51°9.729 2°36.543 296.7 2.1 339 20.6
2008-03-20 11:56:28 51°9.713 2°36.461 231.1 5.4 227 20.5
2008-03-20 11:57:28 51°9.641 2°36.309 235.7 8.1 231 20
2008-03-20 11:58:28 51°9.562 2°36.133 235.5 8.2 237 19.8
2008-03-20 11:59:28 51°9.485 2°35.957 235.5 8.2 234 19.4
2008-03-20 12:00:28 51°9.409 2°35.782 235.8 8.1 234 19.1
2008-03-20 12:01:28 51°9.333 2°35.609 235.2 8 232 19.1
2008-03-20 12:02:28 51°9.258 2°35.438 235.2 8 234 19.4
2008-03-20 12:03:28 51°9.183 2°35.266 235.1 7.9 235 19.5
2008-03-20 12:04:28 51°9.105 2°35.095 234.1 8.1 238 19.6
2008-03-20 12:05:28 51°9.038 2°34.911 240.9 8 243 19.8
2008-03-20 12:06:28 51°8.974 2°34.723 240.3 8.1 240 19.3
2008-03-20 12:07:28 51°8.912 2°34.538 240.7 8 240 19.8
2008-03-20 12:08:28 51°8.87 2°34.386 255.3 3.5 268 19.9
2008-03-20 12:09:28 51°8.898 2°34.359 303.7 2.3 29 19.3
2008-03-20 12:10:28 51°8.922 2°34.411 357.6 2.5 59 18.9
2008-03-20 12:11:28 51°8.941 2°34.476 21.6 2.7 65 18.9
2008-03-20 12:12:28 51°8.959 2°34.541 25.1 2.6 68 18.8
2008-03-20 12:13:28 51°8.978 2°34.604 15.4 2.6 64 19.4
2008-03-20 12:14:28 51°8.994 2°34.667 14.2 2.7 66 19.5
2008-03-20 12:15:28 51°9.012 2°34.73 12.4 2.3 65 20
2008-03-20 12:16:28 51°9.028 2°34.792 10 2.4 70 19.3
2008-03-20 12:17:28 51°9.066 2°34.842 335.2 3.2 18 19.8
2008-03-20 12:18:28 51°9.111 2°34.832 285.7 2.3 338 20.1
2008-03-20 12:19:28 51°9.144 2°34.827 287.5 1.8 7 20.3
2008-03-20 12:20:28 51°9.171 2°34.848 288.2 2 37 19.7
2008-03-20 12:21:28 51°9.198 2°34.881 282.2 1.9 38 19.8
2008-03-20 12:22:28 51°9.219 2°34.912 263.9 1.4 50 20.1
2008-03-20 12:23:28 51°9.228 2°34.95 233.3 1.3 79 19.7
2008-03-20 12:24:28 51°9.228 2°34.98 239.2 0.9 85 20
2008-03-20 12:25:28 51°9.22 2°34.989 219.7 1.9 173 19.9
2008-03-20 12:26:28 51°9.185 2°35.039 179.1 2.7 126 19.9
2008-03-20 12:27:28 51°9.16 2°35.085 195 2.3 154 19.7
2008-03-20 12:28:28 51°9.123 2°35.099 210.4 2.2 180 19.4
2008-03-20 12:29:28 51°9.08 2°35.1 207.1 3.5 185 19.7
2008-03-20 12:30:28 51°9.003 2°35.092 201.1 3.4 180 19
2008-03-20 12:31:28 51°8.97 2°35.108 208.4 1.6 144 19.4
2008-03-20 12:32:28 51°8.95 2°35.123 219.7 1.8 198 19.2
2008-03-20 12:33:28 51°8.933 2°35.071 262.2 2.3 281 19.4
2008-03-20 12:34:28 51°8.943 2°35.007 264.6 2.9 280 19.3
2008-03-20 12:35:28 51°8.952 2°34.917 268.6 3.8 285 19.2
2008-03-20 12:36:28 51°8.97 2°34.825 262.2 3.5 270 19.7
2008-03-20 12:37:28 51°8.975 2°34.754 274.3 2.4 304 19.6
2008-03-20 12:38:28 51°8.995 2°34.695 265.6 2.3 276 19
2008-03-20 12:39:28 51°9.005 2°34.613 268.2 3.1 288 19.2
2008-03-20 12:40:28 51°9.007 2°34.544 251.7 2.7 256 18.9
2008-03-20 12:41:28 51°8.994 2°34.463 253.1 3.2 252 18.7
2008-03-20 12:42:28 51°8.985 2°34.38 253.1 2.8 262 18.9
2008-03-20 12:43:28 51°8.976 2°34.31 250.7 2.8 252 18.4
2008-03-20 12:44:28 51°8.963 2°34.237 246.6 2.9 252 18.6
2008-03-20 12:45:28 51°8.942 2°34.166 240.9 3 242 18.4
2008-03-20 12:46:28 51°8.918 2°34.099 241.4 3 244 18.7
2008-03-20 12:47:28 51°8.895 2°34.035 240.7 2.7 242 18.8
2008-03-20 12:48:28 51°8.874 2°33.97 241.6 2.8 241 18.9
2008-03-20 12:49:28 51°8.852 2°33.904 241.6 2.8 239 18.2
2008-03-20 12:50:28 51°8.832 2°33.836 241.6 2.9 238 18.5
2008-03-20 12:51:28 51°8.81 2°33.772 242.5 2.7 240 18.7
2008-03-20 12:52:28 51°8.789 2°33.706 242 3 248 19.1
2008-03-20 12:53:28 51°8.764 2°33.645 237.4 2.8 225 19.3
2008-03-20 12:54:28 51°8.737 2°33.583 237.9 2.8 234 18.3
2008-03-20 12:55:28 51°8.709 2°33.521 238.3 3 231 18.6
2008-03-20 12:56:29 51°8.682 2°33.456 238.6 2.9 235 18.9
2008-03-20 12:57:29 51°8.655 2°33.393 238.6 2.9 235 18.9
2008-03-20 12:58:29 51°8.63 2°33.327 238.8 3 240 19.1
2008-03-20 12:59:28 51°8.605 2°33.264 237.7 2.9 244 19.2
2008-03-20 13:00:28 51°8.579 2°33.2 238.8 2.9 242 19.2
2008-03-20 13:01:28 51°8.554 2°33.136 239.3 2.8 242 19.4
2008-03-20 13:02:28 51°8.557 2°33.061 271.7 3.4 301 19.4
2008-03-20 13:03:28 51°8.603 2°32.995 293.2 3.4 329 20.9
2008-03-20 13:04:28 51°8.653 2°32.969 307 3.1 352 21.5
2008-03-20 13:05:28 51°8.716 2°32.986 353.1 4.5 20 20.9
2008-03-20 13:06:28 51°8.781 2°33.054 33.3 4.8 46 20.7
2008-03-20 13:07:28 51°8.818 2°33.149 73.6 3.9 70 21
2008-03-20 13:08:28 51°8.825 2°33.24 123.9 3 91 20.9
2008-03-20 13:09:28 51°8.826 2°33.307 145.6 2.1 87 20.8
2008-03-20 13:10:28 51°8.831 2°33.364 152.7 2.1 79 20.7
2008-03-20 13:11:28 51°8.84 2°33.418 158.2 2.2 75 20.5
2008-03-20 13:12:28 51°8.825 2°33.476 171.1 4.1 144 20.1
2008-03-20 13:13:28 51°8.768 2°33.55 165.5 4 148 18.8
2008-03-20 13:14:28 51°8.724 2°33.593 183.6 2.8 149 18.1
2008-03-20 13:15:28 51°8.683 2°33.64 176.7 3.4 141 18.2
2008-03-20 13:16:28 51°8.638 2°33.708 156.3 4.2 127 18.2
2008-03-20 13:17:28 51°8.607 2°33.806 125.9 4.4 98 19.1
2008-03-20 13:18:28 51°8.615 2°33.922 85.6 4.3 76 19.2
2008-03-20 13:19:28 51°8.645 2°34.015 56.6 3.8 55 19.7
2008-03-20 13:20:28 51°8.685 2°34.089 32.3 3.6 43 19.3
2008-03-20 13:21:28 51°8.73 2°34.157 30.6 3.7 41 19.6
2008-03-20 13:22:28 51°8.773 2°34.227 35.8 3.7 47 19.1
2008-03-20 13:23:28 51°8.811 2°34.303 44.7 3.5 50 19.2
2008-03-20 13:24:28 51°8.849 2°34.378 49.7 3.7 57 18.8
2008-03-20 13:25:28 51°8.883 2°34.46 54 3.6 55 18.9
2008-03-20 13:26:28 51°8.919 2°34.541 52 3.8 54 18.5
2008-03-20 13:27:28 51°8.955 2°34.625 54.4 3.8 56 18.7
2008-03-20 13:28:28 51°8.99 2°34.707 55.9 3.8 57 18.8
2008-03-20 13:29:28 51°9.024 2°34.791 56 3.8 57 18.7
2008-03-20 13:30:28 51°9.059 2°34.878 55.7 3.8 61 18.7
2008-03-20 13:31:28 51°9.094 2°34.964 54.3 4 57 18.5
2008-03-20 13:32:28 51°9.13 2°35.052 53.6 4 61 18.5
2008-03-20 13:33:28 51°9.168 2°35.143 54.7 4.2 56 18.7
2008-03-20 13:34:28 51°9.204 2°35.235 55.7 4.1 56 18.3
2008-03-20 13:35:28 51°9.241 2°35.326 56 4.2 55 19
2008-03-20 13:36:28 51°9.279 2°35.42 55.1 4.2 59 18.2
2008-03-20 13:37:28 51°9.318 2°35.512 53.9 4.1 57 18.7
2008-03-20 13:38:28 51°9.356 2°35.605 54.8 4.2 56 18.4
2008-03-20 13:39:28 51°9.393 2°35.698 55.3 4.1 60 18.7
2008-03-20 13:40:28 51°9.431 2°35.79 56 4.2 57 19.2
2008-03-20 13:41:28 51°9.465 2°35.883 63.3 4.1 63 18.6
2008-03-20 13:42:28 51°9.495 2°35.979 69.8 4 66 18.8
2008-03-20 13:43:28 51°9.522 2°36.077 68.1 4 65 18.3
2008-03-20 13:44:28 51°9.551 2°36.174 67.2 4.1 63 18.7
2008-03-20 13:45:28 51°9.578 2°36.269 66.2 3.9 66 18.6
2008-03-20 13:46:29 51°9.606 2°36.364 66.5 3.9 63 18.5
2008-03-20 13:47:28 51°9.633 2°36.455 65.3 3.9 64 18.9
2008-03-20 13:48:28 51°9.66 2°36.546 65.2 3.8 66 18.5
2008-03-20 13:49:28 51°9.687 2°36.633 64.1 3.6 62 18.4
2008-03-20 13:50:29 51°9.715 2°36.72 65.3 3.7 63 18.4
2008-03-20 13:51:28 51°9.741 2°36.805 64.8 3.7 60 18.5
2008-03-20 13:52:28 51°9.769 2°36.893 65.6 3.6 65 18.1
2008-03-20 13:53:29 51°9.797 2°36.983 65.4 3.8 63 18.7
2008-03-20 13:54:28 51°9.824 2°37.07 64.5 3.8 62 18.8
2008-03-20 13:55:28 51°9.853 2°37.158 65.3 3.9 63 18.8
2008-03-20 13:56:29 51°9.881 2°37.247 65.2 3.7 60 19.1
2008-03-20 13:57:28 51°9.908 2°37.336 64 3.8 67 18.9
2008-03-20 13:58:29 51°9.938 2°37.428 65 4 64 18.8
2008-03-20 13:59:28 51°9.967 2°37.518 64.7 3.9 63 19
2008-03-20 14:00:28 51°9.99 2°37.611 81.2 3.7 75 18.8
2008-03-20 14:01:28 51°9.995 2°37.701 113.2 3.1 89 18.8
2008-03-20 14:02:28 51°9.991 2°37.777 126 2.8 100 18.5
2008-03-20 14:03:28 51°9.984 2°37.846 136.3 2.6 102 18.5
2008-03-20 14:04:28 51°9.964 2°37.921 148.5 3.1 123 18.3
2008-03-20 14:05:28 51°9.946 2°37.971 168.5 1.8 113 18.1
2008-03-20 14:06:28 51°9.939 2°38.015 167.1 1.7 98 18
2008-03-20 14:07:28 51°9.939 2°38.057 167.9 1.4 92 17.9
2008-03-20 14:08:28 51°9.929 2°38.106 155.8 3.5 124 17.6
2008-03-20 14:09:28 51°9.937 2°38.241 69.5 7.1 67 17.2
2008-03-20 14:10:28 51°9.994 2°38.496 73.5 12 72 16.8
2008-03-20 14:11:28 51°10.066 2°38.82 71.8 13.4 68 16.4
2008-03-20 14:12:28 51°10.145 2°39.151 70.5 13.2 70 15.9
2008-03-20 14:13:28 51°10.22 2°39.481 72.7 13.6 71 15.3
2008-03-20 14:14:28 51°10.308 2°39.81 67.4 13.3 67 14.7
2008-03-20 14:15:28 51°10.399 2°40.134 70.3 13.5 66 14.6
2008-03-20 14:16:28 51°10.49 2°40.461 66.8 13.4 70 14.2
2008-03-20 14:17:28 51°10.578 2°40.79 69.6 13.4 65 14
2008-03-20 14:18:28 51°10.666 2°41.121 67.8 13.6 69 13.9
2008-03-20 14:19:28 51°10.754 2°41.454 67.9 13.5 69 13.7
2008-03-20 14:20:28 51°10.841 2°41.78 68.9 13.2 65 13.9
2008-03-20 14:21:28 51°10.901 2°42.059 87.4 8.1 97 14
2008-03-20 14:22:28 51°10.834 2°42.139 190.8 4 191 13.8
2008-03-20 14:23:28 51°10.804 2°42.084 262.5 3.3 272 14
2008-03-20 14:24:28 51°10.804 2°41.935 264.6 7 267 13.8
2008-03-20 14:25:28 51°10.798 2°41.74 264.8 7.7 267 13.8
2008-03-20 14:26:28 51°10.794 2°41.537 265.4 7.6 268 14
2008-03-20 14:27:28 51°10.791 2°41.339 264.8 7.4 270 13.8
2008-03-20 14:28:28 51°10.79 2°41.145 265.4 7.3 270 13.7
2008-03-20 14:29:28 51°10.789 2°40.956 265.5 7.2 272 13.9
2008-03-20 14:30:28 51°10.79 2°40.766 265.4 7.3 269 14.1
2008-03-20 14:31:28 51°10.791 2°40.574 265.2 7.3 273 14.4
2008-03-20 14:32:28 51°10.791 2°40.382 265 7.1 269 14.6
2008-03-20 14:33:28 51°10.787 2°40.213 256.8 4.2 255 15
2008-03-20 14:34:28 51°10.737 2°40.21 156.4 4.6 127 15
2008-03-20 14:35:28 51°10.747 2°40.343 56.3 5.6 54 14.8
2008-03-20 14:36:29 51°10.793 2°40.54 78.7 10.9 76 14.4
2008-03-20 14:37:28 51°10.841 2°40.869 78.8 13.6 78 13.8
2008-03-20 14:38:28 51°10.89 2°41.224 78.6 13.8 81 13.3
2008-03-20 14:39:28 51°10.941 2°41.578 78 13.7 75 13.3
2008-03-20 14:40:28 51°10.99 2°41.927 79 13.4 75 13.2
2008-03-20 14:41:28 51°11.034 2°42.27 79.7 13.5 78 13.5
2008-03-20 14:42:28 51°11.07 2°42.539 77.2 8.5 77 13.6
2008-03-20 14:43:28 51°11.107 2°42.825 79.5 12.5 82 13.6
2008-03-20 14:44:28 51°11.146 2°43.158 80 12.7 78 13.6
2008-03-20 14:45:28 51°11.202 2°43.487 74.8 12.9 69 13.4
2008-03-20 14:46:28 51°11.265 2°43.811 71.7 12.7 75 13.7
2008-03-20 14:47:28 51°11.322 2°44.134 76.6 12.8 70 13.4
2008-03-20 14:48:28 51°11.383 2°44.455 73.2 12.5 77 13.5
2008-03-20 14:49:28 51°11.442 2°44.774 76.1 12.5 76 13.5
2008-03-20 14:50:28 51°11.508 2°45.089 72.7 12.8 71 13.5
2008-03-20 14:51:28 51°11.579 2°45.408 71 12.7 70 13.6
2008-03-20 14:52:28 51°11.65 2°45.726 67.1 12.5 74 13.7
2008-03-20 14:53:28 51°11.722 2°46.041 73.2 12.7 65 13.8
2008-03-20 14:54:28 51°11.79 2°46.358 75.5 12.4 71 13.4
2008-03-20 14:55:28 51°11.864 2°46.668 69.2 12.6 69 13.4
2008-03-20 14:56:28 51°11.938 2°46.982 71 12.7 72 13.3
2008-03-20 14:57:28 51°12.016 2°47.295 68.9 12.8 66 13.1
2008-03-20 14:58:28 51°12.107 2°47.598 59.6 12.5 60 13
2008-03-20 14:59:28 51°12.211 2°47.889 57 12.7 61 13
2008-03-20 15:00:28 51°12.316 2°48.18 61.1 12.7 59 13.1
2008-03-20 15:01:28 51°12.424 2°48.47 57.9 12.5 58 12.8
2008-03-20 15:02:28 51°12.527 2°48.759 61.4 12.3 60 12.8
2008-03-20 15:03:28 51°12.629 2°49.044 57.8 12.5 57 12.7
2008-03-20 15:04:28 51°12.743 2°49.326 55.7 12.4 61 12.4
2008-03-20 15:05:28 51°12.86 2°49.602 57.3 12.6 51 12.6
2008-03-20 15:06:28 51°12.976 2°49.883 58.7 12.7 53 12.1
2008-03-20 15:07:28 51°13.094 2°50.159 60.1 12.5 57 12.3
2008-03-20 15:08:28 51°13.205 2°50.442 60.6 12.5 57 11.9
2008-03-20 15:09:28 51°13.321 2°50.721 57.5 12.7 55 12.1
2008-03-20 15:10:28 51°13.438 2°51.002 57.8 12.6 59 11.7
2008-03-20 15:11:28 51°13.552 2°51.285 55.1 12.6 56 11.7
2008-03-20 15:12:28 51°13.671 2°51.567 58.1 12.9 54 11.6
2008-03-20 15:13:28 51°13.789 2°51.85 56 12.7 56 11.3
2008-03-20 15:14:28 51°13.898 2°52.147 60.7 12.9 63 11.2
2008-03-20 15:15:28 51°13.995 2°52.453 65.2 13 58 11.2
2008-03-20 15:16:28 51°14.077 2°52.76 67.4 12.7 63 11.2
2008-03-20 15:17:28 51°14.158 2°53.071 69.1 12.5 71 11.1
2008-03-20 15:18:28 51°14.233 2°53.38 64.5 12.5 73 10.5
2008-03-20 15:19:28 51°14.289 2°53.646 73.9 8.3 71 10.4
2008-03-20 15:20:28 51°14.308 2°53.838 83.4 6.6 85 10.3
2008-03-20 15:21:28 51°14.343 2°54.037 74.3 10.2 75 10
2008-03-20 15:22:28 51°14.393 2°54.341 77.5 12.4 82 9.9
2008-03-20 15:23:28 51°14.42 2°54.674 83.8 12.6 81 10.9
2008-03-20 15:24:28 51°14.388 2°54.966 110.1 10.4 114 11
2008-03-20 15:25:28 51°14.292 2°55.202 128.3 10.4 131 10.6
2008-03-20 15:26:28 51°14.185 2°55.347 149.2 6.2 150 11.4
2008-03-20 15:27:28 51°14.11 2°55.413 153.5 4.7 155 -999
2008-03-20 15:28:28 51°14.038 2°55.47 152.8 5.6 151 -999
2008-03-20 15:29:28 51°13.95 2°55.54 154.9 6 154 -999
2008-03-20 15:30:28 51°13.858 2°55.605 159.7 6.3 161 -999
2008-03-20 15:31:28 51°13.776 2°55.677 138.9 4.9 139 -999
2008-03-20 15:32:28 51°13.725 2°55.767 130.6 4.3 128 -999
2008-03-20 15:33:28 51°13.684 2°55.857 119.1 4 123 -999
2008-03-20 15:34:28 51°13.668 2°55.933 105.3 2.2 101 -999